Main page
METAR-TAF:

METAR-TAF

Airports :

Kryvyi Rih International Airport

Kryvyi Rih, Ukraine

latitude: 48-03N, longitude: 033-13-12E, elevation: 124 m

Current weather observation

The report was made 36 minutes ago, at 20:30 UTC
Wind 12 kt from the West
Temperature 2°C
Humidity 69%
Pressure 1022 hPa
Visibility 10 km or more
Overcast at a height of 2000 ft

METAR: UKDR 212030Z 28006MPS 9999 OVC020 02/M03 Q1022 R18/09//65 NOSIG

Time: 23:06 (21:06 UTC)

Forecast

The report was made 3 hours and 56 minutes ago, at 17:10 UTC
Forecast valid from 21 at 18 UTC to 22 at 18 UTC
Wind 10 kt from the West/Southwest
Visibility 10 km or more
Broken clouds at a height of 1400 ft
Temporary
from 21 at 18 UTC to 22 at 18 UTC
Wind 16 kt from the West with gusts up to 25 kt

TAF: UKDR 211710Z 2118/2218 25005MPS 9999 BKN014 TX04/2212Z TN00/2201Z TEMPO 2118/2218 27008G13MPS

Weather observations and forecasts of more than 4000 airports (METAR and TAF reports).

The available stations are represented by yellow and red dots on the map.

Hover mouse over dot to see the name of the station.

Then click to see weather observations and forecasts.

To change the map : click on the green buttons with a black cross to zoom in, on the green button with a dash to zoom out, or on the green arrows for adjacent maps.


METAR-TAF: